Inicio METAR Ruta Wind Satelite

Informe Meteorológico

Fecha: 2020/12/01 18:32:35 Local
2020.12.01 23:32 UTC


Estado: VIGENTE
Operación:VFR
Bucaramanga / Palonegro, Colombia (SKBG) 07-06N 073-12W
Dec 01, 2020 - 06:00 PM EST / 2020.12.01 2300 UTC
Wind: from the NW (320 degrees) at 6 MPH (5 KT):0
Visibility: greater than 7 mile(s):0
Sky conditions: mostly cloudy
Temperature: 68 F (20 C)
Dew Point: 68 F (20 C)
Relative Humidity: 100%
Pressure (altimeter): 29.93 in. Hg (1013 hPa)
ob: SKBG 012300Z 32005KT 9999 SCT010 BKN070 20/20 A2993
cycle: 23

SKBG 012200Z 32004KT 9999 SCT012 BKN070 22/21 A2991
SKBG 012100Z 32004KT 9999 SCT012 BKN070 22/20 A2990
SKBG 012000Z 32005KT 9999 VCSH BKN015 SCT240 25/20 A2991 RMK VCSH/SE
SKBG 011900Z 34010KT 310V010 9999 BKN015 BKN240 23/20 A2994 REDZ
SKBG 011800Z 33008KT 290V010 9999 SCT008 SCT015 24/21 A2997

2020/12/01 18:45
TAF TAF SKBG 011630Z 0118/0218 32008KT 9999 SCT015 SCT090
TEMPO 0121/0123 DZRA SCT013TCU
BECMG 0202/0204 00000KT
TEMPO 0209/0212 2000 BCFG DZ SCT007 TX27/0118Z TN18/0211Z